Time;durP1;ratioP1;P1;durP2;ratioP2;P2;SDS_P1;SDS_P2;PMS_P1;PMS_P2;Temp;Humidity;BMP_temperature;BMP_pressure;BME280_temperature;BME280_humidity;BME280_pressure;Samples;Min_cycle;Max_cycle;Signal;HPM_P1;HPM_P2
2022/08/05 00:02:06;;;;;;;2.63;2.43;;;21.10;99.90;;;;;;5011588;28;20658;-72
2022/08/05 00:04:32;;;;;;;3.20;2.20;;;21.00;99.90;;;;;;5010565;28;20176;-72
2022/08/05 00:06:57;;;;;;;3.90;2.50;;;21.00;99.90;;;;;;5010821;28;20176;-72
2022/08/05 00:09:23;;;;;;;2.23;2.03;;;20.90;99.90;;;;;;5012133;28;20578;-72
2022/08/05 00:11:48;;;;;;;2.90;2.20;;;20.90;99.90;;;;;;5011982;28;20188;-72
2022/08/05 00:14:14;;;;;;;2.77;2.30;;;20.90;99.90;;;;;;5010666;28;20238;-73
2022/08/05 00:16:40;;;;;;;2.50;2.30;;;20.80;99.90;;;;;;5012038;28;20175;-73
2022/08/05 00:19:06;;;;;;;2.87;2.10;;;20.80;99.90;;;;;;5012032;28;20246;-72
2022/08/05 00:21:32;;;;;;;3.77;3.03;;;20.70;99.90;;;;;;5015111;28;20183;-72
2022/08/05 00:23:59;;;;;;;3.10;2.73;;;20.70;99.90;;;;;;5015988;28;20407;-73
2022/08/05 00:26:25;;;;;;;3.33;2.07;;;20.60;99.90;;;;;;5015667;28;20167;-73
2022/08/05 00:28:50;;;;;;;3.03;2.17;;;20.50;99.90;;;;;;5015985;28;20407;-73
2022/08/05 00:31:16;;;;;;;2.93;2.03;;;20.50;99.90;;;;;;5015752;28;20453;-73
2022/08/05 00:33:42;;;;;;;3.30;2.83;;;20.50;99.90;;;;;;5015793;28;20179;-73
2022/08/05 00:36:07;;;;;;;4.80;2.60;;;20.50;99.90;;;;;;5015599;28;20672;-73
2022/08/05 00:38:33;;;;;;;3.23;2.70;;;20.40;99.90;;;;;;5015537;28;20192;-73
2022/08/05 00:40:59;;;;;;;2.70;2.30;;;20.40;99.90;;;;;;5015514;28;20263;-72
2022/08/05 00:43:24;;;;;;;2.83;2.43;;;20.40;99.90;;;;;;5014334;28;20176;-73
2022/08/05 00:45:50;;;;;;;3.87;2.70;;;20.30;99.90;;;;;;5015365;28;20160;-73
2022/08/05 00:48:19;;;;;;;2.97;2.67;;;20.30;99.90;;;;;;5015503;28;20549;-73
2022/08/05 00:50:46;;;;;;;3.67;2.93;;;20.30;99.90;;;;;;5015304;28;20196;-73
2022/08/05 00:53:15;;;;;;;2.50;2.30;;;20.30;99.90;;;;;;5015391;28;20407;-73
2022/08/05 00:55:41;;;;;;;2.80;2.23;;;20.30;99.90;;;;;;5015101;28;20414;-73
2022/08/05 00:58:06;;;;;;;2.97;2.37;;;20.20;99.90;;;;;;5015298;28;20960;-72
2022/08/05 01:00:32;;;;;;;2.60;2.40;;;20.30;99.90;;;;;;5015299;28;20188;-73
2022/08/05 01:02:58;;;;;;;2.63;2.20;;;20.30;99.90;;;;;;5015385;28;20172;-73
2022/08/05 01:05:24;;;;;;;3.70;2.97;;;20.20;99.90;;;;;;5014967;28;20174;-74
2022/08/05 01:07:51;;;;;;;2.73;2.17;;;20.20;99.90;;;;;;5015180;28;20486;-73
2022/08/05 01:10:22;;;;;;;3.53;3.03;;;20.20;99.90;;;;;;5015040;28;20490;-73
2022/08/05 01:12:54;;;;;;;4.50;3.07;;;20.10;99.90;;;;;;5015140;28;20403;-73
2022/08/05 01:15:28;;;;;;;3.60;3.07;;;20.10;99.90;;;;;;5013636;28;20920;-73
2022/08/05 01:18:03;;;;;;;6.47;2.93;;;20.00;99.90;;;;;;5015061;28;20821;-74
2022/08/05 01:20:38;;;;;;;3.20;2.13;;;20.00;99.90;;;;;;5014603;28;20415;-73
2022/08/05 01:23:10;;;;;;;2.93;2.63;;;20.00;99.90;;;;;;5013514;28;20832;-73
2022/08/05 01:26:13;;;;;;;3.63;2.77;;;19.90;99.90;;;;;;5014698;28;21242;-74
2022/08/05 01:28:52;;;;;;;4.03;2.57;;;19.90;99.90;;;;;;5014751;28;20451;-74
2022/08/05 01:31:34;;;;;;;7.20;3.57;;;19.90;99.90;;;;;;5014438;28;20427;-74
2022/08/05 01:34:17;;;;;;;4.37;2.63;;;19.80;99.90;;;;;;5014688;28;20403;-75
2022/08/05 01:36:47;;;;;;;7.00;3.03;;;19.80;99.90;;;;;;5014786;28;20773;-74
2022/08/05 01:39:15;;;;;;;5.17;2.47;;;19.70;99.90;;;;;;5014467;28;20826;-73
2022/08/05 01:41:44;;;;;;;6.47;2.77;;;19.70;99.90;;;;;;5014501;28;20423;-73
2022/08/05 01:44:12;;;;;;;4.10;3.20;;;19.70;99.90;;;;;;5014413;28;20481;-73
2022/08/05 01:46:39;;;;;;;5.87;3.67;;;19.70;99.90;;;;;;5014405;28;20404;-73
2022/08/05 01:49:07;;;;;;;5.93;3.90;;;19.70;99.90;;;;;;5014698;28;20920;-74
2022/08/05 01:51:34;;;;;;;5.87;4.00;;;19.70;99.90;;;;;;5014158;28;20443;-74
2022/08/05 01:54:04;;;;;;;5.53;3.20;;;19.80;99.90;;;;;;5014217;28;20465;-74
2022/08/05 01:56:33;;;;;;;6.53;3.57;;;19.90;99.90;;;;;;5014069;28;20399;-74
2022/08/05 01:59:05;;;;;;;4.37;3.50;;;19.90;99.90;;;;;;5012875;28;20457;-75
2022/08/05 02:01:33;;;;;;;5.33;3.40;;;19.80;99.90;;;;;;5014176;28;20975;-73
2022/08/05 02:04:00;;;;;;;5.53;4.63;;;19.90;99.90;;;;;;5014204;28;20430;-72
2022/08/05 02:06:26;;;;;;;5.10;4.03;;;19.90;99.90;;;;;;5013686;28;20428;-72
2022/08/05 02:08:52;;;;;;;4.73;3.63;;;19.90;99.90;;;;;;5012837;28;20411;-73
2022/08/05 02:11:19;;;;;;;6.97;4.67;;;19.90;99.90;;;;;;5012719;28;20202;-73
2022/08/05 02:14:03;;;;;;;4.57;4.13;;;19.90;99.90;;;;;;5013904;28;20444;-72
2022/08/05 02:16:40;;;;;;;9.50;4.80;;;19.90;99.90;;;;;;5013630;28;20403;-72
2022/08/05 02:19:18;;;;;;;10.17;4.17;;;19.90;99.90;;;;;;5013810;28;20455;-72
2022/08/05 02:21:52;;;;;;;5.17;3.57;;;19.90;99.90;;;;;;5013671;28;20763;-73
2022/08/05 02:24:22;;;;;;;4.77;4.13;;;19.90;99.90;;;;;;5013562;28;20882;-73
2022/08/05 02:26:51;;;;;;;12.33;4.63;;;20.00;99.90;;;;;;5013786;28;20901;-73
2022/08/05 02:29:21;;;;;;;5.83;4.07;;;20.00;99.90;;;;;;5013731;28;20813;-73
2022/08/05 02:31:49;;;;;;;7.20;4.70;;;19.90;99.90;;;;;;5013458;28;20433;-73
2022/08/05 02:34:18;;;;;;;10.30;4.30;;;19.90;99.90;;;;;;5012106;28;20439;-72
2022/08/05 02:36:49;;;;;;;5.70;4.93;;;20.00;99.90;;;;;;5013367;28;20434;-72
2022/08/05 02:39:19;;;;;;;7.43;5.03;;;20.00;99.90;;;;;;5013550;28;20465;-72
2022/08/05 02:41:49;;;;;;;8.50;5.77;;;20.00;99.90;;;;;;5013038;28;20770;-72
2022/08/05 02:44:16;;;;;;;8.93;5.40;;;20.00;99.90;;;;;;5012231;28;20411;-72
2022/08/05 02:46:45;;;;;;;9.17;4.40;;;20.00;99.90;;;;;;5013278;28;20395;-73
2022/08/05 02:49:14;;;;;;;4.70;3.87;;;20.00;99.90;;;;;;5013332;28;20407;-73
2022/08/05 02:51:40;;;;;;;4.53;4.13;;;20.00;99.90;;;;;;5013118;28;20824;-73
2022/08/05 02:54:06;;;;;;;6.80;5.30;;;19.90;99.90;;;;;;5013295;28;20780;-74
2022/08/05 02:56:33;;;;;;;10.60;5.60;;;19.90;99.90;;;;;;5012856;28;20414;-73
2022/08/05 02:59:00;;;;;;;5.63;4.63;;;19.90;99.90;;;;;;5013108;28;20451;-73
2022/08/05 03:01:28;;;;;;;8.03;5.13;;;19.80;99.90;;;;;;5011703;28;20462;-72
2022/08/05 03:03:57;;;;;;;7.87;5.80;;;19.70;99.90;;;;;;5012999;28;20426;-73
2022/08/05 03:06:25;;;;;;;6.30;4.70;;;19.70;99.90;;;;;;5012707;28;20905;-72
2022/08/05 03:08:51;;;;;;;6.20;5.40;;;19.70;99.90;;;;;;5013019;28;20411;-72
2022/08/05 03:11:22;;;;;;;7.20;5.10;;;19.60;99.90;;;;;;5012958;28;20495;-73
2022/08/05 03:13:48;;;;;;;5.73;4.90;;;19.60;99.90;;;;;;5011677;28;20962;-73
2022/08/05 03:16:14;;;;;;;10.63;6.60;;;19.60;99.90;;;;;;5012429;28;20437;-74
2022/08/05 03:18:40;;;;;;;6.10;4.17;;;19.50;99.90;;;;;;5012136;28;20450;-73
2022/08/05 03:21:06;;;;;;;6.80;5.00;;;19.60;99.90;;;;;;5012728;28;20680;-74
2022/08/05 03:23:32;;;;;;;6.20;5.40;;;19.60;99.90;;;;;;5012631;28;20399;-74
2022/08/05 03:25:59;;;;;;;7.90;6.00;;;19.60;99.90;;;;;;5011285;28;20238;-75
2022/08/05 03:28:24;;;;;;;9.20;7.27;;;19.60;99.90;;;;;;5011362;28;20419;-73
2022/08/05 03:30:50;;;;;;;8.60;7.10;;;19.60;99.90;;;;;;5012584;28;20534;-73
2022/08/05 03:33:17;;;;;;;10.30;9.20;;;19.60;99.90;;;;;;5012679;28;20606;-75
2022/08/05 03:35:47;;;;;;;13.20;7.93;;;19.60;99.90;;;;;;5012331;28;20935;-76
2022/08/05 03:38:13;;;;;;;11.57;9.37;;;19.60;99.90;;;;;;5012494;28;20458;-75
2022/08/05 03:40:40;;;;;;;14.27;8.30;;;19.60;99.90;;;;;;5012368;28;20969;-75
2022/08/05 03:43:05;;;;;;;8.90;7.87;;;19.50;99.90;;;;;;5012253;28;20410;-74
2022/08/05 03:45:31;;;;;;;8.57;7.73;;;19.50;99.90;;;;;;5012165;28;20403;-74
2022/08/05 03:47:56;;;;;;;9.40;7.57;;;19.40;99.90;;;;;;5012381;28;20533;-75
2022/08/05 03:50:22;;;;;;;11.17;8.20;;;19.40;99.90;;;;;;5012196;28;20517;-75
2022/08/05 03:53:04;;;;;;;7.43;6.70;;;19.40;99.90;;;;;;5012028;28;20346;-74
2022/08/05 03:55:36;;;;;;;8.57;7.03;;;19.40;99.90;;;;;;5011735;28;20246;-74
2022/08/05 03:58:03;;;;;;;9.20;7.47;;;19.40;99.90;;;;;;5012180;28;20541;-73
2022/08/05 04:00:31;;;;;;;8.90;6.70;;;19.40;99.90;;;;;;5010960;28;20419;-74
2022/08/05 04:03:00;;;;;;;8.30;7.33;;;19.50;99.90;;;;;;5012158;28;20460;-74
2022/08/05 04:05:31;;;;;;;8.13;6.77;;;19.40;99.90;;;;;;5011977;28;20955;-74
2022/08/05 04:07:59;;;;;;;11.97;8.43;;;19.40;99.90;;;;;;5012068;28;20439;-74
2022/08/05 04:10:26;;;;;;;7.60;6.33;;;19.40;99.90;;;;;;5012204;28;20418;-74
2022/08/05 04:12:52;;;;;;;8.77;7.20;;;19.40;99.90;;;;;;5011101;28;20954;-74
2022/08/05 04:15:18;;;;;;;9.17;8.23;;;19.40;99.90;;;;;;5011675;28;20414;-74
2022/08/05 04:17:44;;;;;;;12.17;7.20;;;19.40;99.90;;;;;;5011869;28;20608;-74
2022/08/05 04:20:18;;;;;;;11.73;7.73;;;19.40;99.90;;;;;;5011972;28;20215;-74
2022/08/05 04:22:44;;;;;;;10.97;7.40;;;19.50;99.90;;;;;;5011999;28;20596;-74
2022/08/05 04:25:09;;;;;;;9.30;7.27;;;19.50;99.90;;;;;;5011731;28;20454;-74
2022/08/05 04:27:35;;;;;;;7.27;6.10;;;19.50;99.90;;;;;;5011976;28;20172;-74
2022/08/05 04:30:01;;;;;;;8.90;8.00;;;19.50;99.90;;;;;;5011933;28;20519;-74
2022/08/05 04:32:26;;;;;;;10.33;8.10;;;19.60;99.90;;;;;;5011853;28;20195;-74
2022/08/05 04:34:52;;;;;;;9.07;7.53;;;19.60;99.90;;;;;;5011961;28;20175;-74
2022/08/05 04:37:17;;;;;;;10.73;8.07;;;19.60;99.90;;;;;;5011886;28;20684;-74
2022/08/05 04:39:43;;;;;;;9.47;8.37;;;19.70;99.90;;;;;;5011872;28;20165;-74
2022/08/05 04:42:08;;;;;;;11.80;8.70;;;19.70;99.90;;;;;;5011891;28;20258;-74
2022/08/05 04:44:34;;;;;;;10.47;9.23;;;19.80;99.90;;;;;;5011490;28;20168;-71
2022/08/05 04:47:00;;;;;;;12.93;10.67;;;19.80;99.90;;;;;;5011802;28;20164;-72
2022/08/05 04:49:26;;;;;;;15.30;12.23;;;19.80;99.90;;;;;;5011801;28;20192;-73
2022/08/05 04:51:52;;;;;;;16.70;11.03;;;19.80;99.90;;;;;;5011644;28;20442;-73
2022/08/05 04:54:18;;;;;;;12.50;9.50;;;19.90;99.90;;;;;;5011420;28;20768;-73
2022/08/05 04:56:44;;;;;;;13.50;10.20;;;19.80;99.90;;;;;;5011774;28;20164;-73
2022/08/05 04:59:10;;;;;;;13.27;10.30;;;19.80;99.90;;;;;;5011619;28;21022;-74
2022/08/05 05:01:36;;;;;;;10.20;8.60;;;19.90;99.90;;;;;;5010276;28;20558;-74
2022/08/05 05:04:02;;;;;;;13.40;10.97;;;19.90;99.90;;;;;;5010399;28;20936;-73
2022/08/05 05:06:28;;;;;;;18.10;12.83;;;20.00;99.90;;;;;;5011426;28;20168;-73
2022/08/05 05:08:53;;;;;;;16.57;11.50;;;20.00;99.90;;;;;;5015048;28;20971;-72
2022/08/05 05:11:19;;;;;;;14.03;10.67;;;20.10;99.90;;;;;;5015168;28;20191;-74
2022/08/05 05:13:44;;;;;;;18.50;10.80;;;20.10;99.90;;;;;;5015147;28;20223;-74
2022/08/05 05:16:10;;;;;;;14.40;9.70;;;20.20;99.90;;;;;;5014789;28;20172;-73
2022/08/05 05:18:35;;;;;;;13.03;8.50;;;20.30;99.90;;;;;;5014964;28;20272;-73
2022/08/05 05:21:02;;;;;;;10.60;8.70;;;20.30;99.90;;;;;;5014944;28;20184;-74
2022/08/05 05:23:28;;;;;;;13.77;10.00;;;20.30;99.90;;;;;;5014991;28;20248;-74
2022/08/05 05:25:53;;;;;;;12.10;8.90;;;20.40;99.90;;;;;;5014587;28;20496;-74
2022/08/05 05:28:19;;;;;;;13.50;8.90;;;20.40;99.90;;;;;;5014905;28;20318;-73
2022/08/05 05:30:45;;;;;;;19.53;11.17;;;20.40;99.90;;;;;;5014664;28;20258;-74
2022/08/05 05:33:11;;;;;;;16.47;11.37;;;20.50;99.90;;;;;;5014836;28;20501;-74
2022/08/05 05:35:36;;;;;;;14.10;9.10;;;20.60;99.90;;;;;;5014420;28;20402;-74
2022/08/05 05:38:03;;;;;;;15.57;8.23;;;20.60;99.90;;;;;;5014582;28;20658;-74
2022/08/05 05:40:30;;;;;;;21.07;10.90;;;20.70;99.90;;;;;;5014626;28;20560;-73
2022/08/05 05:42:56;;;;;;;19.43;11.00;;;20.80;99.90;;;;;;5014528;28;20399;-73
2022/08/05 05:45:22;;;;;;;18.47;10.67;;;20.80;99.90;;;;;;5014214;28;20873;-73
2022/08/05 05:47:48;;;;;;;23.97;11.30;;;20.90;99.90;;;;;;5014527;28;20403;-73
2022/08/05 05:50:16;;;;;;;21.10;12.47;;;20.90;99.90;;;;;;5014371;28;20457;-73
2022/08/05 05:52:42;;;;;;;26.90;14.70;;;21.00;99.90;;;;;;5014352;28;20184;-73
2022/08/05 05:55:10;;;;;;;22.40;13.77;;;20.90;99.90;;;;;;5014144;28;20807;-73
2022/08/05 05:57:40;;;;;;;23.03;13.40;;;21.00;99.90;;;;;;5014210;28;20446;-73
2022/08/05 06:00:08;;;;;;;22.90;13.53;;;21.00;99.90;;;;;;5014230;28;20457;-73
2022/08/05 06:02:34;;;;;;;23.70;14.07;;;21.10;99.90;;;;;;5014127;28;20407;-73
2022/08/05 06:05:00;;;;;;;21.97;13.47;;;21.10;99.90;;;;;;5013835;28;20502;-73
2022/08/05 06:07:26;;;;;;;27.07;15.17;;;21.10;99.90;;;;;;5014188;28;20831;-73
2022/08/05 06:09:51;;;;;;;25.80;12.73;;;21.10;99.90;;;;;;5014078;28;20544;-73
2022/08/05 06:12:17;;;;;;;23.47;14.80;;;21.20;99.90;;;;;;5013840;28;20200;-74
2022/08/05 06:14:43;;;;;;;26.50;14.80;;;21.20;99.90;;;;;;5013721;28;20179;-73
2022/08/05 06:17:09;;;;;;;23.80;12.90;;;21.20;99.90;;;;;;5013831;28;20164;-74
2022/08/05 06:19:35;;;;;;;20.97;12.27;;;21.20;99.90;;;;;;5013776;28;20407;-74
2022/08/05 06:22:04;;;;;;;25.90;15.33;;;21.20;99.90;;;;;;5013722;28;20446;-74
2022/08/05 06:24:30;;;;;;;27.17;13.47;;;21.20;99.90;;;;;;5013515;28;20407;-74
2022/08/05 06:26:56;;;;;;;25.33;14.03;;;21.20;99.90;;;;;;5013707;28;20419;-74
2022/08/05 06:29:22;;;;;;;20.83;11.37;;;21.20;99.90;;;;;;5013663;28;20396;-72
2022/08/05 06:31:47;;;;;;;26.23;13.87;;;21.20;99.90;;;;;;5013530;28;20180;-75
2022/08/05 06:34:13;;;;;;;21.47;13.90;;;21.20;99.90;;;;;;5013504;28;20168;-72
2022/08/05 06:36:38;;;;;;;26.30;14.03;;;21.20;99.90;;;;;;5013491;28;20169;-73
2022/08/05 06:39:04;;;;;;;19.73;11.97;;;21.10;99.90;;;;;;5012159;28;20203;-72
2022/08/05 06:41:29;;;;;;;23.13;13.43;;;21.20;99.90;;;;;;5013405;28;20209;-73
2022/08/05 06:43:55;;;;;;;18.63;12.10;;;21.10;99.90;;;;;;5013307;28;20172;-73
2022/08/05 06:46:20;;;;;;;18.13;11.30;;;21.10;99.90;;;;;;5013180;28;20165;-73
2022/08/05 06:48:46;;;;;;;19.67;13.27;;;21.10;99.90;;;;;;5013304;28;20294;-73
2022/08/05 06:51:11;;;;;;;17.77;12.03;;;21.00;99.90;;;;;;5013155;28;20207;-73
2022/08/05 06:53:37;;;;;;;21.10;12.60;;;21.00;99.90;;;;;;5013300;28;20175;-74
2022/08/05 06:56:03;;;;;;;24.87;14.20;;;20.90;99.90;;;;;;5012834;28;20634;-74
2022/08/05 06:58:29;;;;;;;20.63;12.23;;;20.90;99.90;;;;;;5013032;28;20199;-74
2022/08/05 07:00:57;;;;;;;22.53;13.97;;;20.90;99.90;;;;;;5013052;28;20203;-74
2022/08/05 07:03:23;;;;;;;27.17;15.60;;;20.90;99.90;;;;;;5011833;28;20407;-74
2022/08/05 07:05:48;;;;;;;28.07;15.87;;;20.90;99.90;;;;;;5012888;28;20477;-74
2022/08/05 07:08:14;;;;;;;21.70;15.87;;;20.90;99.90;;;;;;5013019;28;20183;-74
2022/08/05 07:10:39;;;;;;;24.73;15.43;;;20.90;99.90;;;;;;5012894;28;20195;-74
2022/08/05 07:18:33;;;;;;;25.17;15.20;;;20.80;99.90;;;;;;5012786;28;20997;-73
2022/08/05 07:20:58;;;;;;;35.83;18.60;;;20.80;99.90;;;;;;5012452;28;20423;-74
2022/08/05 07:23:24;;;;;;;22.10;14.90;;;20.80;99.90;;;;;;5012827;28;20578;-74
2022/08/05 07:25:49;;;;;;;30.63;16.10;;;20.70;99.90;;;;;;5012476;28;20171;-74
2022/08/05 07:28:15;;;;;;;24.93;14.73;;;20.70;99.90;;;;;;5012627;28;20196;-73
2022/08/05 07:30:41;;;;;;;33.67;18.70;;;20.70;99.90;;;;;;5010905;28;20194;-74
2022/08/05 07:33:09;;;;;;;30.77;17.37;;;20.60;99.90;;;;;;5012587;28;20172;-74
2022/08/05 07:35:34;;;;;;;38.87;16.60;;;20.60;99.90;;;;;;5012278;28;20641;-74
2022/08/05 07:38:00;;;;;;;25.23;14.30;;;20.60;99.90;;;;;;5012447;28;20550;-74
2022/08/05 07:40:26;;;;;;;14.23;9.53;;;20.60;99.90;;;;;;5012469;28;20172;-74
2022/08/05 07:42:51;;;;;;;19.87;10.30;;;20.50;99.90;;;;;;5012520;28;20161;-72
2022/08/05 07:45:17;;;;;;;11.63;9.10;;;20.40;99.90;;;;;;5012168;28;20164;-74
2022/08/05 07:47:43;;;;;;;12.37;9.70;;;20.40;99.90;;;;;;5012471;28;20167;-73
2022/08/05 07:50:09;;;;;;;18.73;10.33;;;20.40;99.90;;;;;;5012239;28;20406;-72
2022/08/05 07:52:39;;;;;;;18.33;9.33;;;20.30;99.90;;;;;;5011039;28;20194;-73
2022/08/05 07:55:05;;;;;;;22.30;11.43;;;20.30;99.90;;;;;;5010713;28;20267;-73
2022/08/05 07:57:31;;;;;;;18.30;10.27;;;20.40;99.90;;;;;;5010958;28;20483;-73
2022/08/05 07:59:56;;;;;;;25.87;12.30;;;20.30;99.90;;;;;;5012244;28;20854;-74
2022/08/05 08:02:26;;;;;;;17.93;11.87;;;20.30;99.90;;;;;;5012980;28;20191;-74
2022/08/05 08:04:52;;;;;;;18.37;11.17;;;20.30;99.90;;;;;;5010744;28;20191;-74
2022/08/05 08:07:18;;;;;;;23.57;12.60;;;20.30;99.90;;;;;;5012135;28;20407;-74
2022/08/05 08:09:45;;;;;;;17.23;11.20;;;20.30;99.90;;;;;;5012229;28;20172;-74
2022/08/05 08:12:13;;;;;;;21.43;12.37;;;20.30;99.90;;;;;;5011971;28;21141;-74
2022/08/05 08:14:42;;;;;;;20.30;11.30;;;20.30;99.90;;;;;;5011826;28;20817;-74
2022/08/05 08:17:09;;;;;;;20.43;11.63;;;20.30;99.90;;;;;;5012042;28;20816;-77
2022/08/05 08:19:39;;;;;;;15.00;9.10;;;20.30;99.90;;;;;;5012490;28;20408;-74
2022/08/05 08:22:06;;;;;;;20.83;12.00;;;20.30;99.90;;;;;;5011873;28;20419;-74
2022/08/05 08:24:31;;;;;;;14.50;9.97;;;20.30;99.90;;;;;;5010500;28;20932;-74
2022/08/05 08:26:57;;;;;;;16.70;11.13;;;20.30;99.90;;;;;;5011876;28;20465;-74
2022/08/05 08:29:23;;;;;;;25.07;11.73;;;20.40;99.90;;;;;;5012025;28;20196;-74
2022/08/05 08:31:49;;;;;;;17.30;11.70;;;20.50;99.90;;;;;;5011823;28;20764;-74
2022/08/05 08:34:19;;;;;;;14.40;9.50;;;20.50;99.90;;;;;;5011637;28;20221;-74
2022/08/05 08:36:45;;;;;;;12.23;9.10;;;20.50;99.90;;;;;;5011936;28;20411;-74
2022/08/05 08:39:10;;;;;;;12.80;8.83;;;20.50;99.90;;;;;;5011732;28;20956;-74
2022/08/05 08:41:39;;;;;;;13.60;9.80;;;20.40;99.90;;;;;;5011834;28;20199;-74
2022/08/05 08:44:06;;;;;;;15.40;10.90;;;20.40;99.90;;;;;;5015612;28;20215;-74
2022/08/05 08:46:33;;;;;;;14.53;10.50;;;20.40;99.90;;;;;;5015307;28;20542;-74
2022/08/05 08:49:01;;;;;;;14.83;10.83;;;20.30;99.90;;;;;;5015741;28;20771;-74
2022/08/05 08:51:32;;;;;;;15.20;10.53;;;20.30;99.90;;;;;;5015287;28;20467;-74
2022/08/05 08:53:58;;;;;;;11.27;8.77;;;20.30;99.90;;;;;;5015437;28;20404;-74
2022/08/05 08:56:24;;;;;;;13.40;9.00;;;20.30;99.90;;;;;;5014749;28;20407;-74
2022/08/05 08:58:50;;;;;;;12.20;9.00;;;20.30;99.90;;;;;;5015299;28;20523;-74
2022/08/05 09:01:17;;;;;;;21.03;10.20;;;20.30;99.90;;;;;;5015260;28;20426;-74
2022/08/05 09:03:50;;;;;;;9.80;8.30;;;20.20;99.90;;;;;;5014946;28;20496;-72
2022/08/05 09:06:16;;;;;;;12.53;8.70;;;20.20;99.90;;;;;;5014570;28;20407;-72
2022/08/05 09:08:41;;;;;;;8.73;7.83;;;20.20;99.90;;;;;;5014876;28;20405;-73
2022/08/05 09:11:08;;;;;;;9.60;7.70;;;20.30;99.90;;;;;;5014516;28;20674;-72
2022/08/05 09:13:35;;;;;;;9.53;7.30;;;20.30;99.90;;;;;;5014723;28;20172;-72
2022/08/05 09:16:01;;;;;;;10.03;6.80;;;20.40;99.90;;;;;;5014396;28;20415;-74
2022/08/05 09:18:27;;;;;;;9.30;7.10;;;20.50;99.90;;;;;;5014550;28;20852;-73
2022/08/05 09:20:53;;;;;;;7.27;5.73;;;20.40;99.90;;;;;;5014838;28;20445;-73
2022/08/05 09:23:19;;;;;;;6.83;6.13;;;20.50;99.90;;;;;;5014635;28;20160;-74
2022/08/05 09:25:49;;;;;;;6.90;5.60;;;20.50;99.90;;;;;;5014415;28;20165;-75
2022/08/05 09:28:22;;;;;;;7.07;6.37;;;20.60;99.90;;;;;;5013244;28;20749;-73
2022/08/05 09:31:07;;;;;;;7.73;5.90;;;20.60;99.90;;;;;;5013245;28;20435;-73
2022/08/05 09:33:53;;;;;;;7.00;5.37;;;20.70;99.90;;;;;;5014565;28;21279;-74
2022/08/05 09:36:20;;;;;;;7.70;5.50;;;20.80;99.90;;;;;;5012885;28;20450;-73
2022/08/05 09:39:03;;;;;;;6.00;4.83;;;20.90;99.90;;;;;;5014178;28;20450;-73
2022/08/05 09:41:29;;;;;;;7.63;5.50;;;21.00;99.90;;;;;;5014240;28;20422;-73
2022/08/05 09:43:55;;;;;;;5.20;3.67;;;21.00;99.90;;;;;;5012888;28;20499;-73
2022/08/05 09:46:24;;;;;;;5.20;4.60;;;21.10;99.90;;;;;;5014019;28;20169;-73
2022/08/05 09:48:51;;;;;;;6.50;4.73;;;21.20;99.90;;;;;;5014183;28;20532;-74
2022/08/05 09:51:16;;;;;;;5.37;4.20;;;21.20;99.90;;;;;;5013981;28;20447;-74
2022/08/05 09:53:48;;;;;;;4.67;4.17;;;21.30;99.90;;;;;;5013510;28;20984;-72
2022/08/05 09:56:22;;;;;;;6.10;5.50;;;21.50;99.90;;;;;;5012506;28;20173;-72
2022/08/05 09:59:08;;;;;;;6.10;4.93;;;21.60;99.90;;;;;;5013690;28;20553;-72
2022/08/05 10:01:37;;;;;;;4.77;3.77;;;21.70;99.90;;;;;;5013845;28;20431;-72
2022/08/05 10:04:07;;;;;;;7.97;4.10;;;21.70;99.90;;;;;;5013724;28;20419;-73
2022/08/05 10:06:33;;;;;;;3.93;3.53;;;21.80;99.90;;;;;;5013804;28;20410;-73
2022/08/05 10:09:12;;;;;;;6.60;5.27;;;21.90;99.90;;;;;;5013692;28;20940;-73
2022/08/05 10:11:39;;;;;;;6.87;3.53;;;22.10;99.90;;;;;;5013666;28;20831;-73
2022/08/05 10:14:25;;;;;;;9.07;3.40;;;22.20;99.90;;;;;;5013639;28;20522;-73
2022/08/05 10:16:51;;;;;;;7.30;4.03;;;22.40;99.90;;;;;;5013629;28;20482;-73
2022/08/05 10:19:17;;;;;;;6.70;3.60;;;22.50;99.90;;;;;;5013351;28;20546;-73
2022/08/05 10:21:44;;;;;;;3.17;2.70;;;22.50;99.90;;;;;;5013514;28;20514;-72
2022/08/05 10:24:12;;;;;;;5.43;2.77;;;22.50;99.90;;;;;;5013500;28;20184;-72
2022/08/05 10:26:40;;;;;;;7.30;3.27;;;22.50;99.90;;;;;;5013344;28;20404;-73
2022/08/05 10:29:06;;;;;;;4.80;3.07;;;22.60;99.90;;;;;;5013247;28;20422;-73
2022/08/05 10:31:32;;;;;;;5.87;3.13;;;22.80;99.90;;;;;;5013298;28;20423;-73
2022/08/05 10:33:58;;;;;;;3.80;2.77;;;23.00;99.90;;;;;;5013295;28;20395;-73
2022/08/05 10:36:24;;;;;;;4.83;3.50;;;23.30;99.90;;;;;;5012977;28;20419;-73
2022/08/05 10:38:57;;;;;;;3.17;2.80;;;23.50;99.90;;;;;;5012895;28;20231;-73
2022/08/05 10:41:55;;;;;;;4.13;3.43;;;23.80;99.90;;;;;;5013155;28;20199;-74
2022/08/05 10:44:23;;;;;;;4.87;3.30;;;24.30;99.90;;;;;;5012958;28;20768;-73
2022/08/05 10:46:51;;;;;;;3.97;3.43;;;24.50;99.90;;;;;;5013121;28;20403;-73
2022/08/05 10:49:17;;;;;;;4.57;3.23;;;25.00;99.90;;;;;;5013190;28;20438;-74
2022/08/05 10:51:45;;;;;;;4.93;3.00;;;25.50;99.90;;;;;;5012867;28;20451;-73
2022/08/05 10:54:12;;;;;;;4.93;2.70;;;25.70;99.90;;;;;;5012893;28;20415;-74
2022/08/05 10:56:54;;;;;;;6.47;3.20;;;26.20;99.90;;;;;;5012773;28;20743;-74
2022/08/05 10:59:30;;;;;;;4.73;3.00;;;26.60;99.90;;;;;;5012687;28;20465;-74
2022/08/05 11:02:10;;;;;;;3.30;2.27;;;27.00;99.90;;;;;;5012692;28;20455;-73
2022/08/05 11:04:47;;;;;;;5.57;3.17;;;27.20;99.90;;;;;;5011609;28;20399;-73
2022/08/05 11:07:17;;;;;;;4.87;3.77;;;27.50;99.90;;;;;;5012836;28;20911;-73
2022/08/05 11:09:45;;;;;;;4.30;3.87;;;27.60;99.90;;;;;;5012576;28;20395;-74
2022/08/05 11:12:25;;;;;;;6.10;3.43;;;28.30;99.90;;;;;;5012581;28;20940;-74
2022/08/05 11:15:15;;;;;;;7.03;4.13;;;29.10;99.90;;;;;;5012290;28;20403;-74
2022/08/05 11:17:43;;;;;;;4.37;4.07;;;30.60;99.90;;;;;;5012725;28;20959;-74
2022/08/05 11:20:41;;;;;;;5.70;4.03;;;31.30;99.90;;;;;;5012308;28;20453;-73
2022/08/05 11:23:25;;;;;;;4.33;3.93;;;31.40;98.80;;;;;;5012354;28;20407;-74
2022/08/05 11:26:18;;;;;;;6.47;3.83;;;33.00;95.10;;;;;;5011796;28;20399;-74
2022/08/05 11:28:49;;;;;;;3.40;3.20;;;34.30;87.30;;;;;;5012257;28;20399;-74
2022/08/05 11:31:14;;;;;;;3.93;2.87;;;34.50;77.10;;;;;;5012304;28;20493;-74
2022/08/05 11:34:02;;;;;;;4.03;3.27;;;34.80;73.20;;;;;;5012370;28;20433;-74
2022/08/05 11:36:45;;;;;;;4.17;3.87;;;35.70;65.90;;;;;;5012078;28;20172;-75
2022/08/05 11:39:13;;;;;;;5.70;5.30;;;36.60;63.90;;;;;;5010741;28;20462;-74
2022/08/05 11:41:40;;;;;;;3.67;3.33;;;37.60;61.00;;;;;;5010875;28;20501;-74
2022/08/05 11:44:14;;;;;;;4.30;3.93;;;38.00;57.20;;;;;;5012178;28;20411;-74
2022/08/05 11:46:45;;;;;;;5.63;3.57;;;38.00;54.10;;;;;;5012204;28;20870;-75
2022/08/05 11:49:13;;;;;;;4.73;4.00;;;37.50;53.60;;;;;;5012176;28;20420;-74
2022/08/05 11:51:43;;;;;;;3.97;3.17;;;37.60;55.60;;;;;;5011705;28;20604;-74
2022/08/05 11:54:11;;;;;;;7.60;3.83;;;38.40;53.90;;;;;;5012130;28;20422;-74
2022/08/05 11:56:47;;;;;;;3.30;3.10;;;39.40;51.90;;;;;;5011849;28;20411;-75
2022/08/05 11:59:18;;;;;;;4.97;3.70;;;40.80;49.60;;;;;;5011950;28;20549;-74
2022/08/05 12:01:56;;;;;;;4.60;4.20;;;42.00;47.60;;;;;;5011545;28;20406;-74
2022/08/05 12:04:23;;;;;;;7.23;3.60;;;42.30;44.10;;;;;;5010366;28;20779;-74
2022/08/05 12:06:49;;;;;;;3.63;3.33;;;41.50;42.80;;;;;;5010625;28;20382;-73
2022/08/05 12:09:24;;;;;;;4.37;3.97;;;40.30;43.60;;;;;;5011920;28;20782;-73
2022/08/05 12:11:50;;;;;;;6.10;4.20;;;39.10;44.90;;;;;;5011826;28;20409;-73
2022/08/05 12:14:15;;;;;;;2.87;2.60;;;38.80;46.20;;;;;;5011664;28;20407;-73
2022/08/05 12:16:43;;;;;;;3.07;2.87;;;38.90;46.80;;;;;;5012475;28;20210;-75
2022/08/05 12:19:10;;;;;;;4.80;2.80;;;39.70;46.50;;;;;;5015643;28;20198;-74
2022/08/05 12:21:43;;;;;;;4.60;3.57;;;40.40;44.80;;;;;;5015793;28;20402;-75
2022/08/05 12:24:13;;;;;;;3.53;3.23;;;41.40;43.50;;;;;;5015967;28;20373;-75
2022/08/05 12:26:48;;;;;;;3.70;3.40;;;42.00;43.20;;;;;;5015667;28;20377;-75
2022/08/05 12:29:22;;;;;;;3.43;2.80;;;41.70;43.10;;;;;;5015797;28;20919;-75
2022/08/05 12:31:53;;;;;;;4.23;3.07;;;42.20;43.90;;;;;;5015647;28;20445;-75
2022/08/05 12:34:22;;;;;;;3.47;2.90;;;42.10;41.80;;;;;;5015383;28;20404;-73
2022/08/05 12:36:49;;;;;;;3.03;2.83;;;42.20;42.10;;;;;;5015525;28;20512;-73
2022/08/05 12:39:16;;;;;;;2.97;2.70;;;41.30;40.80;;;;;;5015263;28;20435;-73
2022/08/05 12:41:42;;;;;;;2.80;2.60;;;40.40;43.20;;;;;;5015400;28;20935;-73
2022/08/05 12:44:10;;;;;;;3.10;2.53;;;39.10;43.70;;;;;;5015368;28;20392;-73
2022/08/05 12:46:37;;;;;;;3.00;2.70;;;37.70;44.20;;;;;;5015165;28;20167;-74
2022/08/05 12:49:13;;;;;;;2.60;2.40;;;36.70;45.30;;;;;;5015387;28;20928;-74
2022/08/05 12:51:52;;;;;;;2.57;2.37;;;35.50;47.30;;;;;;5015167;28;20951;-74
2022/08/05 12:54:26;;;;;;;2.47;2.27;;;35.00;49.70;;;;;;5015034;28;20406;-74